sensor_id;sensor_type;location;lat;lon;timestamp;P1;durP1;ratioP1;P2;durP2;ratioP2
4676;SDS011;2352;48.180;11.478;2023-02-01T00:00:14;4.83;;;3.70;;
4676;SDS011;2352;48.180;11.478;2023-02-01T00:03:17;3.90;;;3.60;;
4676;SDS011;2352;48.180;11.478;2023-02-01T00:06:22;4.03;;;3.73;;
4676;SDS011;2352;48.180;11.478;2023-02-01T00:09:24;4.93;;;4.07;;
4676;SDS011;2352;48.180;11.478;2023-02-01T00:12:27;4.23;;;3.23;;
4676;SDS011;2352;48.180;11.478;2023-02-01T00:15:30;4.10;;;3.50;;
4676;SDS011;2352;48.180;11.478;2023-02-01T00:18:34;4.17;;;3.87;;
4676;SDS011;2352;48.180;11.478;2023-02-01T00:21:39;7.07;;;3.70;;
4676;SDS011;2352;48.180;11.478;2023-02-01T00:24:42;4.70;;;3.03;;
4676;SDS011;2352;48.180;11.478;2023-02-01T00:27:48;4.17;;;3.33;;
4676;SDS011;2352;48.180;11.478;2023-02-01T00:30:55;4.43;;;3.60;;
4676;SDS011;2352;48.180;11.478;2023-02-01T00:33:59;4.63;;;3.53;;
4676;SDS011;2352;48.180;11.478;2023-02-01T00:37:03;3.53;;;3.23;;
4676;SDS011;2352;48.180;11.478;2023-02-01T00:40:07;3.00;;;2.77;;
4676;SDS011;2352;48.180;11.478;2023-02-01T00:43:10;4.10;;;3.03;;
4676;SDS011;2352;48.180;11.478;2023-02-01T00:46:14;3.83;;;3.53;;
4676;SDS011;2352;48.180;11.478;2023-02-01T00:49:18;3.50;;;3.20;;
4676;SDS011;2352;48.180;11.478;2023-02-01T00:52:22;4.70;;;3.70;;
4676;SDS011;2352;48.180;11.478;2023-02-01T00:55:25;3.27;;;3.00;;
4676;SDS011;2352;48.180;11.478;2023-02-01T00:58:28;4.27;;;3.97;;
4676;SDS011;2352;48.180;11.478;2023-02-01T01:01:32;5.57;;;4.00;;
4676;SDS011;2352;48.180;11.478;2023-02-01T01:04:35;4.20;;;3.87;;
4676;SDS011;2352;48.180;11.478;2023-02-01T01:07:40;3.90;;;3.60;;
4676;SDS011;2352;48.180;11.478;2023-02-01T01:10:43;4.40;;;4.00;;
4676;SDS011;2352;48.180;11.478;2023-02-01T01:13:46;4.90;;;4.50;;
4676;SDS011;2352;48.180;11.478;2023-02-01T01:16:49;4.53;;;4.23;;
4676;SDS011;2352;48.180;11.478;2023-02-01T01:19:52;4.93;;;4.50;;
4676;SDS011;2352;48.180;11.478;2023-02-01T01:22:56;5.20;;;4.60;;
4676;SDS011;2352;48.180;11.478;2023-02-01T01:25:59;5.00;;;3.83;;
4676;SDS011;2352;48.180;11.478;2023-02-01T01:29:08;4.67;;;4.00;;
4676;SDS011;2352;48.180;11.478;2023-02-01T01:32:12;3.97;;;3.67;;
4676;SDS011;2352;48.180;11.478;2023-02-01T01:35:15;5.00;;;4.60;;
4676;SDS011;2352;48.180;11.478;2023-02-01T01:38:19;4.57;;;4.27;;
4676;SDS011;2352;48.180;11.478;2023-02-01T01:41:23;4.97;;;4.57;;
4676;SDS011;2352;48.180;11.478;2023-02-01T01:48:00;4.77;;;4.37;;
4676;SDS011;2352;48.180;11.478;2023-02-01T01:51:06;5.70;;;5.30;;
4676;SDS011;2352;48.180;11.478;2023-02-01T01:54:15;5.77;;;5.27;;
4676;SDS011;2352;48.180;11.478;2023-02-01T01:57:23;5.80;;;5.33;;
4676;SDS011;2352;48.180;11.478;2023-02-01T02:00:28;5.43;;;5.03;;
4676;SDS011;2352;48.180;11.478;2023-02-01T02:03:32;5.10;;;4.67;;
4676;SDS011;2352;48.180;11.478;2023-02-01T02:06:39;5.97;;;5.50;;
4676;SDS011;2352;48.180;11.478;2023-02-01T02:09:47;6.17;;;5.67;;
4676;SDS011;2352;48.180;11.478;2023-02-01T02:13:00;6.07;;;5.57;;
4676;SDS011;2352;48.180;11.478;2023-02-01T02:16:05;5.73;;;5.23;;
4676;SDS011;2352;48.180;11.478;2023-02-01T02:19:40;7.07;;;6.37;;
4676;SDS011;2352;48.180;11.478;2023-02-01T02:27:11;6.60;;;6.00;;
4676;SDS011;2352;48.180;11.478;2023-02-01T02:30:35;5.77;;;5.10;;
4676;SDS011;2352;48.180;11.478;2023-02-01T02:33:53;5.67;;;5.27;;
4676;SDS011;2352;48.180;11.478;2023-02-01T02:37:11;4.93;;;4.37;;
4676;SDS011;2352;48.180;11.478;2023-02-01T02:40:25;6.07;;;5.57;;
4676;SDS011;2352;48.180;11.478;2023-02-01T02:43:35;5.47;;;4.97;;
4676;SDS011;2352;48.180;11.478;2023-02-01T02:47:13;5.57;;;5.17;;
4676;SDS011;2352;48.180;11.478;2023-02-01T02:50:29;6.30;;;5.10;;
4676;SDS011;2352;48.180;11.478;2023-02-01T02:53:56;4.90;;;4.50;;
4676;SDS011;2352;48.180;11.478;2023-02-01T02:57:20;7.07;;;4.87;;
4676;SDS011;2352;48.180;11.478;2023-02-01T03:00:45;5.60;;;4.90;;
4676;SDS011;2352;48.180;11.478;2023-02-01T03:04:07;4.97;;;4.57;;
4676;SDS011;2352;48.180;11.478;2023-02-01T03:10:56;6.30;;;4.63;;
4676;SDS011;2352;48.180;11.478;2023-02-01T03:14:02;4.70;;;4.33;;
4676;SDS011;2352;48.180;11.478;2023-02-01T03:17:08;4.37;;;4.03;;
4676;SDS011;2352;48.180;11.478;2023-02-01T03:20:15;4.47;;;4.07;;
4676;SDS011;2352;48.180;11.478;2023-02-01T03:23:24;4.67;;;4.37;;
4676;SDS011;2352;48.180;11.478;2023-02-01T03:26:30;4.43;;;4.13;;
4676;SDS011;2352;48.180;11.478;2023-02-01T03:29:37;4.60;;;4.20;;
4676;SDS011;2352;48.180;11.478;2023-02-01T03:32:54;4.87;;;4.40;;
4676;SDS011;2352;48.180;11.478;2023-02-01T03:36:03;4.60;;;4.30;;
4676;SDS011;2352;48.180;11.478;2023-02-01T03:39:14;4.13;;;3.83;;
4676;SDS011;2352;48.180;11.478;2023-02-01T03:42:22;4.23;;;4.00;;
4676;SDS011;2352;48.180;11.478;2023-02-01T03:45:31;4.33;;;4.03;;
4676;SDS011;2352;48.180;11.478;2023-02-01T03:48:37;5.27;;;4.37;;
4676;SDS011;2352;48.180;11.478;2023-02-01T03:51:42;4.00;;;3.70;;
4676;SDS011;2352;48.180;11.478;2023-02-01T03:54:46;4.60;;;4.30;;
4676;SDS011;2352;48.180;11.478;2023-02-01T03:57:50;4.73;;;4.27;;
4676;SDS011;2352;48.180;11.478;2023-02-01T04:00:57;5.20;;;4.80;;
4676;SDS011;2352;48.180;11.478;2023-02-01T04:04:01;4.00;;;3.70;;
4676;SDS011;2352;48.180;11.478;2023-02-01T04:07:04;3.83;;;3.53;;
4676;SDS011;2352;48.180;11.478;2023-02-01T04:10:09;5.03;;;4.33;;
4676;SDS011;2352;48.180;11.478;2023-02-01T04:13:13;4.67;;;4.30;;
4676;SDS011;2352;48.180;11.478;2023-02-01T04:16:16;4.10;;;3.77;;
4676;SDS011;2352;48.180;11.478;2023-02-01T04:19:19;4.03;;;3.80;;
4676;SDS011;2352;48.180;11.478;2023-02-01T04:22:22;4.67;;;4.23;;
4676;SDS011;2352;48.180;11.478;2023-02-01T04:25:26;4.10;;;3.80;;
4676;SDS011;2352;48.180;11.478;2023-02-01T04:28:29;8.73;;;4.07;;
4676;SDS011;2352;48.180;11.478;2023-02-01T04:31:32;4.87;;;3.73;;
4676;SDS011;2352;48.180;11.478;2023-02-01T04:34:37;5.30;;;4.90;;
4676;SDS011;2352;48.180;11.478;2023-02-01T04:37:39;4.67;;;4.27;;
4676;SDS011;2352;48.180;11.478;2023-02-01T04:40:46;5.10;;;4.70;;
4676;SDS011;2352;48.180;11.478;2023-02-01T04:43:49;4.33;;;4.03;;
4676;SDS011;2352;48.180;11.478;2023-02-01T04:46:53;5.37;;;4.97;;
4676;SDS011;2352;48.180;11.478;2023-02-01T04:49:56;4.97;;;4.50;;
4676;SDS011;2352;48.180;11.478;2023-02-01T04:52:59;4.87;;;4.47;;
4676;SDS011;2352;48.180;11.478;2023-02-01T04:56:03;12.30;;;11.13;;
4676;SDS011;2352;48.180;11.478;2023-02-01T04:59:07;5.40;;;4.97;;
4676;SDS011;2352;48.180;11.478;2023-02-01T05:02:10;7.07;;;4.37;;
4676;SDS011;2352;48.180;11.478;2023-02-01T05:05:13;4.97;;;4.60;;
4676;SDS011;2352;48.180;11.478;2023-02-01T05:08:16;5.37;;;4.90;;
4676;SDS011;2352;48.180;11.478;2023-02-01T05:11:20;5.20;;;4.80;;
4676;SDS011;2352;48.180;11.478;2023-02-01T05:14:40;4.47;;;4.10;;
4676;SDS011;2352;48.180;11.478;2023-02-01T05:17:43;4.97;;;4.57;;
4676;SDS011;2352;48.180;11.478;2023-02-01T05:20:46;4.60;;;4.20;;
4676;SDS011;2352;48.180;11.478;2023-02-01T05:23:49;5.67;;;5.27;;
4676;SDS011;2352;48.180;11.478;2023-02-01T05:27:11;6.27;;;5.67;;
4676;SDS011;2352;48.180;11.478;2023-02-01T05:30:14;4.93;;;4.60;;
4676;SDS011;2352;48.180;11.478;2023-02-01T05:33:17;6.20;;;5.70;;
4676;SDS011;2352;48.180;11.478;2023-02-01T05:36:20;5.57;;;5.07;;
4676;SDS011;2352;48.180;11.478;2023-02-01T05:39:23;5.33;;;4.93;;
4676;SDS011;2352;48.180;11.478;2023-02-01T05:42:27;6.17;;;5.67;;
4676;SDS011;2352;48.180;11.478;2023-02-01T05:45:30;6.10;;;5.60;;
4676;SDS011;2352;48.180;11.478;2023-02-01T05:48:33;4.20;;;3.90;;
4676;SDS011;2352;48.180;11.478;2023-02-01T05:51:36;5.50;;;5.00;;
4676;SDS011;2352;48.180;11.478;2023-02-01T05:54:38;5.57;;;5.17;;
4676;SDS011;2352;48.180;11.478;2023-02-01T05:57:43;5.93;;;5.33;;
4676;SDS011;2352;48.180;11.478;2023-02-01T06:00:46;5.13;;;4.73;;
4676;SDS011;2352;48.180;11.478;2023-02-01T06:03:48;5.23;;;4.83;;
4676;SDS011;2352;48.180;11.478;2023-02-01T06:06:51;5.57;;;5.07;;
4676;SDS011;2352;48.180;11.478;2023-02-01T06:09:54;5.30;;;4.80;;
4676;SDS011;2352;48.180;11.478;2023-02-01T06:12:58;5.50;;;5.00;;
4676;SDS011;2352;48.180;11.478;2023-02-01T06:16:01;5.93;;;5.43;;
4676;SDS011;2352;48.180;11.478;2023-02-01T06:19:05;5.30;;;4.90;;
4676;SDS011;2352;48.180;11.478;2023-02-01T06:22:10;5.33;;;5.00;;
4676;SDS011;2352;48.180;11.478;2023-02-01T06:25:13;5.47;;;4.97;;
4676;SDS011;2352;48.180;11.478;2023-02-01T06:28:19;5.47;;;5.07;;
4676;SDS011;2352;48.180;11.478;2023-02-01T06:31:22;5.93;;;5.33;;
4676;SDS011;2352;48.180;11.478;2023-02-01T06:34:26;5.70;;;5.20;;
4676;SDS011;2352;48.180;11.478;2023-02-01T06:37:29;6.10;;;5.60;;
4676;SDS011;2352;48.180;11.478;2023-02-01T06:40:32;7.23;;;6.53;;
4676;SDS011;2352;48.180;11.478;2023-02-01T06:43:36;5.97;;;5.50;;
4676;SDS011;2352;48.180;11.478;2023-02-01T06:46:39;5.33;;;4.83;;
4676;SDS011;2352;48.180;11.478;2023-02-01T06:49:42;4.83;;;4.50;;
4676;SDS011;2352;48.180;11.478;2023-02-01T06:52:45;4.97;;;4.53;;
4676;SDS011;2352;48.180;11.478;2023-02-01T06:55:51;5.40;;;5.00;;
4676;SDS011;2352;48.180;11.478;2023-02-01T06:58:56;5.10;;;4.47;;
4676;SDS011;2352;48.180;11.478;2023-02-01T07:01:59;4.93;;;4.37;;
4676;SDS011;2352;48.180;11.478;2023-02-01T07:05:02;4.17;;;3.87;;
4676;SDS011;2352;48.180;11.478;2023-02-01T07:08:05;5.17;;;4.73;;
4676;SDS011;2352;48.180;11.478;2023-02-01T07:11:09;4.10;;;3.67;;
4676;SDS011;2352;48.180;11.478;2023-02-01T07:14:15;5.70;;;5.17;;
4676;SDS011;2352;48.180;11.478;2023-02-01T07:17:18;4.63;;;4.00;;
4676;SDS011;2352;48.180;11.478;2023-02-01T07:20:21;4.50;;;4.10;;
4676;SDS011;2352;48.180;11.478;2023-02-01T07:23:25;4.43;;;4.03;;
4676;SDS011;2352;48.180;11.478;2023-02-01T07:26:28;4.60;;;4.20;;
4676;SDS011;2352;48.180;11.478;2023-02-01T07:29:32;4.07;;;3.77;;
4676;SDS011;2352;48.180;11.478;2023-02-01T07:32:36;3.17;;;2.90;;
4676;SDS011;2352;48.180;11.478;2023-02-01T07:35:39;3.47;;;3.27;;
4676;SDS011;2352;48.180;11.478;2023-02-01T07:38:42;4.67;;;3.40;;
4676;SDS011;2352;48.180;11.478;2023-02-01T07:41:45;3.00;;;2.80;;
4676;SDS011;2352;48.180;11.478;2023-02-01T07:44:49;3.30;;;3.07;;
4676;SDS011;2352;48.180;11.478;2023-02-01T07:47:52;3.93;;;3.63;;
4676;SDS011;2352;48.180;11.478;2023-02-01T07:50:58;3.07;;;2.87;;
4676;SDS011;2352;48.180;11.478;2023-02-01T07:54:02;3.97;;;3.67;;
4676;SDS011;2352;48.180;11.478;2023-02-01T07:57:05;3.90;;;3.50;;
4676;SDS011;2352;48.180;11.478;2023-02-01T08:00:11;3.50;;;3.07;;
4676;SDS011;2352;48.180;11.478;2023-02-01T08:03:33;2.40;;;2.20;;
4676;SDS011;2352;48.180;11.478;2023-02-01T08:06:36;2.70;;;2.50;;
4676;SDS011;2352;48.180;11.478;2023-02-01T08:09:39;2.40;;;2.20;;
4676;SDS011;2352;48.180;11.478;2023-02-01T08:12:42;6.83;;;2.97;;
4676;SDS011;2352;48.180;11.478;2023-02-01T08:15:50;2.70;;;2.50;;
4676;SDS011;2352;48.180;11.478;2023-02-01T08:18:53;2.70;;;2.50;;
4676;SDS011;2352;48.180;11.478;2023-02-01T08:21:56;3.00;;;2.73;;
4676;SDS011;2352;48.180;11.478;2023-02-01T08:25:00;3.80;;;2.43;;
4676;SDS011;2352;48.180;11.478;2023-02-01T08:28:03;3.00;;;2.70;;
4676;SDS011;2352;48.180;11.478;2023-02-01T08:31:09;2.57;;;2.37;;
4676;SDS011;2352;48.180;11.478;2023-02-01T08:34:16;3.90;;;2.40;;
4676;SDS011;2352;48.180;11.478;2023-02-01T08:37:19;3.07;;;2.77;;
4676;SDS011;2352;48.180;11.478;2023-02-01T08:40:21;2.97;;;2.67;;
4676;SDS011;2352;48.180;11.478;2023-02-01T08:43:25;2.40;;;2.20;;
4676;SDS011;2352;48.180;11.478;2023-02-01T08:46:29;2.67;;;2.20;;
4676;SDS011;2352;48.180;11.478;2023-02-01T08:49:32;2.80;;;2.60;;
4676;SDS011;2352;48.180;11.478;2023-02-01T08:52:35;2.67;;;2.37;;
4676;SDS011;2352;48.180;11.478;2023-02-01T08:55:38;3.30;;;3.00;;
4676;SDS011;2352;48.180;11.478;2023-02-01T08:58:41;2.03;;;1.87;;
4676;SDS011;2352;48.180;11.478;2023-02-01T09:01:46;3.77;;;3.00;;
4676;SDS011;2352;48.180;11.478;2023-02-01T09:04:48;2.70;;;2.50;;
4676;SDS011;2352;48.180;11.478;2023-02-01T09:07:51;3.17;;;2.77;;
4676;SDS011;2352;48.180;11.478;2023-02-01T09:10:58;2.73;;;2.53;;
4676;SDS011;2352;48.180;11.478;2023-02-01T09:14:03;3.17;;;2.93;;
4676;SDS011;2352;48.180;11.478;2023-02-01T09:17:08;2.27;;;2.13;;
4676;SDS011;2352;48.180;11.478;2023-02-01T09:20:12;3.37;;;2.20;;
4676;SDS011;2352;48.180;11.478;2023-02-01T09:23:15;2.10;;;1.90;;
4676;SDS011;2352;48.180;11.478;2023-02-01T09:26:18;2.33;;;2.13;;
4676;SDS011;2352;48.180;11.478;2023-02-01T09:29:31;2.10;;;2.00;;
4676;SDS011;2352;48.180;11.478;2023-02-01T09:32:35;2.50;;;2.30;;
4676;SDS011;2352;48.180;11.478;2023-02-01T09:35:38;2.23;;;2.07;;
4676;SDS011;2352;48.180;11.478;2023-02-01T09:38:41;5.93;;;2.37;;
4676;SDS011;2352;48.180;11.478;2023-02-01T09:41:56;2.40;;;2.20;;
4676;SDS011;2352;48.180;11.478;2023-02-01T09:45:06;2.03;;;1.87;;
4676;SDS011;2352;48.180;11.478;2023-02-01T09:48:21;2.60;;;2.13;;
4676;SDS011;2352;48.180;11.478;2023-02-01T09:51:32;2.00;;;1.90;;
4676;SDS011;2352;48.180;11.478;2023-02-01T09:54:39;2.00;;;1.90;;
4676;SDS011;2352;48.180;11.478;2023-02-01T09:57:46;3.03;;;2.50;;
4676;SDS011;2352;48.180;11.478;2023-02-01T10:00:55;3.57;;;3.27;;
4676;SDS011;2352;48.180;11.478;2023-02-01T10:04:03;2.23;;;2.13;;
4676;SDS011;2352;48.180;11.478;2023-02-01T10:07:12;3.50;;;2.37;;
4676;SDS011;2352;48.180;11.478;2023-02-01T10:10:26;2.63;;;2.43;;
4676;SDS011;2352;48.180;11.478;2023-02-01T10:13:34;2.43;;;2.10;;
4676;SDS011;2352;48.180;11.478;2023-02-01T10:16:50;2.70;;;2.50;;
4676;SDS011;2352;48.180;11.478;2023-02-01T10:20:03;2.43;;;2.03;;
4676;SDS011;2352;48.180;11.478;2023-02-01T10:23:19;2.80;;;2.50;;
4676;SDS011;2352;48.180;11.478;2023-02-01T10:26:35;5.13;;;2.67;;
4676;SDS011;2352;48.180;11.478;2023-02-01T10:29:43;2.73;;;2.53;;
4676;SDS011;2352;48.180;11.478;2023-02-01T10:32:50;2.70;;;2.50;;
4676;SDS011;2352;48.180;11.478;2023-02-01T10:36:00;2.90;;;2.57;;
4676;SDS011;2352;48.180;11.478;2023-02-01T10:39:11;2.50;;;2.30;;
4676;SDS011;2352;48.180;11.478;2023-02-01T10:42:16;2.37;;;2.00;;
4676;SDS011;2352;48.180;11.478;2023-02-01T10:45:23;3.70;;;2.60;;
4676;SDS011;2352;48.180;11.478;2023-02-01T10:48:29;2.47;;;2.27;;
4676;SDS011;2352;48.180;11.478;2023-02-01T10:51:38;1.47;;;1.37;;
4676;SDS011;2352;48.180;11.478;2023-02-01T10:54:46;2.00;;;1.90;;
4676;SDS011;2352;48.180;11.478;2023-02-01T10:57:53;2.53;;;2.07;;
4676;SDS011;2352;48.180;11.478;2023-02-01T11:00:59;2.03;;;1.83;;
4676;SDS011;2352;48.180;11.478;2023-02-01T11:04:04;3.70;;;2.37;;
4676;SDS011;2352;48.180;11.478;2023-02-01T11:07:15;2.53;;;2.33;;
4676;SDS011;2352;48.180;11.478;2023-02-01T11:10:34;2.87;;;2.67;;
4676;SDS011;2352;48.180;11.478;2023-02-01T11:13:39;2.90;;;2.53;;
4676;SDS011;2352;48.180;11.478;2023-02-01T11:16:46;2.60;;;2.40;;
4676;SDS011;2352;48.180;11.478;2023-02-01T11:19:56;3.13;;;2.43;;
4676;SDS011;2352;48.180;11.478;2023-02-01T11:23:02;2.97;;;2.77;;
4676;SDS011;2352;48.180;11.478;2023-02-01T11:26:07;3.40;;;2.70;;
4676;SDS011;2352;48.180;11.478;2023-02-01T11:29:14;2.97;;;2.67;;
4676;SDS011;2352;48.180;11.478;2023-02-01T11:32:23;3.23;;;2.93;;
4676;SDS011;2352;48.180;11.478;2023-02-01T11:35:27;3.10;;;2.80;;
4676;SDS011;2352;48.180;11.478;2023-02-01T11:38:33;14.93;;;3.47;;
4676;SDS011;2352;48.180;11.478;2023-02-01T11:41:43;2.33;;;2.13;;
4676;SDS011;2352;48.180;11.478;2023-02-01T11:45:17;2.80;;;2.30;;
4676;SDS011;2352;48.180;11.478;2023-02-01T11:48:23;3.60;;;3.30;;
4676;SDS011;2352;48.180;11.478;2023-02-01T11:51:32;3.77;;;3.47;;
4676;SDS011;2352;48.180;11.478;2023-02-01T11:54:48;3.13;;;2.47;;
4676;SDS011;2352;48.180;11.478;2023-02-01T11:58:11;3.47;;;3.17;;
4676;SDS011;2352;48.180;11.478;2023-02-01T12:01:29;3.40;;;3.13;;
4676;SDS011;2352;48.180;11.478;2023-02-01T12:08:23;3.70;;;3.43;;
4676;SDS011;2352;48.180;11.478;2023-02-01T12:11:38;4.40;;;3.27;;
4676;SDS011;2352;48.180;11.478;2023-02-01T12:14:57;3.67;;;3.33;;
4676;SDS011;2352;48.180;11.478;2023-02-01T12:18:26;5.17;;;3.63;;
4676;SDS011;2352;48.180;11.478;2023-02-01T12:21:56;10.37;;;3.43;;
4676;SDS011;2352;48.180;11.478;2023-02-01T12:25:25;2.70;;;2.50;;
4676;SDS011;2352;48.180;11.478;2023-02-01T12:28:42;4.07;;;3.27;;
4676;SDS011;2352;48.180;11.478;2023-02-01T12:32:06;3.43;;;3.13;;
4676;SDS011;2352;48.180;11.478;2023-02-01T12:38:54;3.43;;;3.13;;
4676;SDS011;2352;48.180;11.478;2023-02-01T12:42:08;3.50;;;3.00;;
4676;SDS011;2352;48.180;11.478;2023-02-01T12:45:20;7.03;;;2.90;;
4676;SDS011;2352;48.180;11.478;2023-02-01T12:48:31;4.90;;;3.03;;
4676;SDS011;2352;48.180;11.478;2023-02-01T12:51:40;4.00;;;3.43;;
4676;SDS011;2352;48.180;11.478;2023-02-01T12:54:47;4.73;;;2.53;;
4676;SDS011;2352;48.180;11.478;2023-02-01T12:57:56;5.03;;;2.60;;
4676;SDS011;2352;48.180;11.478;2023-02-01T13:01:14;2.77;;;2.57;;
4676;SDS011;2352;48.180;11.478;2023-02-01T13:04:25;5.17;;;2.57;;
4676;SDS011;2352;48.180;11.478;2023-02-01T13:07:34;9.00;;;2.80;;
4676;SDS011;2352;48.180;11.478;2023-02-01T13:10:43;3.37;;;2.77;;
4676;SDS011;2352;48.180;11.478;2023-02-01T13:13:52;3.07;;;2.50;;
4676;SDS011;2352;48.180;11.478;2023-02-01T13:17:02;2.67;;;2.47;;
4676;SDS011;2352;48.180;11.478;2023-02-01T13:20:13;2.93;;;2.73;;
4676;SDS011;2352;48.180;11.478;2023-02-01T13:23:24;3.10;;;2.63;;
4676;SDS011;2352;48.180;11.478;2023-02-01T13:26:29;3.17;;;2.43;;
4676;SDS011;2352;48.180;11.478;2023-02-01T13:29:33;5.53;;;2.63;;
4676;SDS011;2352;48.180;11.478;2023-02-01T13:32:46;6.80;;;2.87;;
4676;SDS011;2352;48.180;11.478;2023-02-01T13:36:27;3.10;;;2.90;;
4676;SDS011;2352;48.180;11.478;2023-02-01T13:39:51;4.50;;;3.23;;
4676;SDS011;2352;48.180;11.478;2023-02-01T13:43:02;4.50;;;2.70;;
4676;SDS011;2352;48.180;11.478;2023-02-01T13:46:10;2.63;;;2.43;;
4676;SDS011;2352;48.180;11.478;2023-02-01T13:49:20;3.17;;;2.87;;
4676;SDS011;2352;48.180;11.478;2023-02-01T13:52:26;3.03;;;2.53;;
4676;SDS011;2352;48.180;11.478;2023-02-01T13:55:32;2.40;;;2.20;;
4676;SDS011;2352;48.180;11.478;2023-02-01T13:58:38;3.43;;;2.60;;
4676;SDS011;2352;48.180;11.478;2023-02-01T14:01:42;2.67;;;2.47;;
4676;SDS011;2352;48.180;11.478;2023-02-01T14:04:47;3.03;;;2.77;;
4676;SDS011;2352;48.180;11.478;2023-02-01T14:08:09;3.23;;;2.53;;
4676;SDS011;2352;48.180;11.478;2023-02-01T14:14:38;5.37;;;2.83;;
4676;SDS011;2352;48.180;11.478;2023-02-01T14:17:42;4.13;;;2.60;;
4676;SDS011;2352;48.180;11.478;2023-02-01T14:20:47;5.10;;;2.83;;
4676;SDS011;2352;48.180;11.478;2023-02-01T14:23:56;3.10;;;2.90;;
4676;SDS011;2352;48.180;11.478;2023-02-01T14:27:02;3.67;;;2.40;;
4676;SDS011;2352;48.180;11.478;2023-02-01T14:30:19;2.97;;;2.77;;
4676;SDS011;2352;48.180;11.478;2023-02-01T14:33:23;2.90;;;2.20;;
4676;SDS011;2352;48.180;11.478;2023-02-01T14:36:38;2.53;;;2.33;;
4676;SDS011;2352;48.180;11.478;2023-02-01T14:39:50;3.13;;;2.83;;
4676;SDS011;2352;48.180;11.478;2023-02-01T14:42:57;4.17;;;2.20;;
4676;SDS011;2352;48.180;11.478;2023-02-01T14:46:00;2.60;;;2.30;;
4676;SDS011;2352;48.180;11.478;2023-02-01T14:49:02;4.40;;;2.43;;
4676;SDS011;2352;48.180;11.478;2023-02-01T14:52:09;4.20;;;2.63;;
4676;SDS011;2352;48.180;11.478;2023-02-01T14:55:18;3.43;;;2.60;;
4676;SDS011;2352;48.180;11.478;2023-02-01T14:58:31;7.50;;;2.43;;
4676;SDS011;2352;48.180;11.478;2023-02-01T15:01:38;2.30;;;1.77;;
4676;SDS011;2352;48.180;11.478;2023-02-01T15:04:53;5.50;;;2.57;;
4676;SDS011;2352;48.180;11.478;2023-02-01T15:07:59;2.67;;;1.90;;
4676;SDS011;2352;48.180;11.478;2023-02-01T15:11:08;3.47;;;2.33;;
4676;SDS011;2352;48.180;11.478;2023-02-01T15:14:16;3.37;;;1.60;;
4676;SDS011;2352;48.180;11.478;2023-02-01T15:17:20;2.40;;;2.17;;
4676;SDS011;2352;48.180;11.478;2023-02-01T15:20:25;4.90;;;2.20;;
4676;SDS011;2352;48.180;11.478;2023-02-01T15:23:32;3.77;;;2.20;;
4676;SDS011;2352;48.180;11.478;2023-02-01T15:26:35;1.77;;;1.63;;
4676;SDS011;2352;48.180;11.478;2023-02-01T15:29:38;4.67;;;2.40;;
4676;SDS011;2352;48.180;11.478;2023-02-01T15:32:41;3.57;;;2.37;;
4676;SDS011;2352;48.180;11.478;2023-02-01T15:35:45;3.00;;;2.00;;
4676;SDS011;2352;48.180;11.478;2023-02-01T15:38:50;2.63;;;2.03;;
4676;SDS011;2352;48.180;11.478;2023-02-01T15:42:21;3.67;;;2.30;;
4676;SDS011;2352;48.180;11.478;2023-02-01T15:45:25;2.57;;;2.37;;
4676;SDS011;2352;48.180;11.478;2023-02-01T15:48:30;1.53;;;1.43;;
4676;SDS011;2352;48.180;11.478;2023-02-01T15:51:36;2.53;;;1.60;;
4676;SDS011;2352;48.180;11.478;2023-02-01T15:54:42;6.40;;;1.80;;
4676;SDS011;2352;48.180;11.478;2023-02-01T15:57:49;4.33;;;1.33;;
4676;SDS011;2352;48.180;11.478;2023-02-01T16:00:54;5.60;;;1.80;;
4676;SDS011;2352;48.180;11.478;2023-02-01T16:04:03;5.77;;;1.70;;
4676;SDS011;2352;48.180;11.478;2023-02-01T16:07:22;4.70;;;1.77;;
4676;SDS011;2352;48.180;11.478;2023-02-01T16:10:29;3.03;;;1.60;;
4676;SDS011;2352;48.180;11.478;2023-02-01T16:13:33;6.80;;;2.00;;
4676;SDS011;2352;48.180;11.478;2023-02-01T16:16:36;4.50;;;1.93;;
4676;SDS011;2352;48.180;11.478;2023-02-01T16:19:39;5.23;;;1.70;;
4676;SDS011;2352;48.180;11.478;2023-02-01T16:22:41;6.07;;;1.60;;
4676;SDS011;2352;48.180;11.478;2023-02-01T16:25:46;3.43;;;2.67;;
4676;SDS011;2352;48.180;11.478;2023-02-01T16:28:49;2.20;;;2.00;;
4676;SDS011;2352;48.180;11.478;2023-02-01T16:31:52;3.17;;;1.70;;
4676;SDS011;2352;48.180;11.478;2023-02-01T16:34:55;2.40;;;1.60;;
4676;SDS011;2352;48.180;11.478;2023-02-01T16:37:59;4.30;;;2.50;;
4676;SDS011;2352;48.180;11.478;2023-02-01T16:41:03;2.20;;;2.00;;
4676;SDS011;2352;48.180;11.478;2023-02-01T16:44:07;2.77;;;2.17;;
4676;SDS011;2352;48.180;11.478;2023-02-01T16:47:11;2.67;;;2.07;;
4676;SDS011;2352;48.180;11.478;2023-02-01T16:50:18;3.07;;;1.57;;
4676;SDS011;2352;48.180;11.478;2023-02-01T16:53:24;3.57;;;2.00;;
4676;SDS011;2352;48.180;11.478;2023-02-01T16:56:33;4.87;;;2.30;;
4676;SDS011;2352;48.180;11.478;2023-02-01T16:59:37;4.10;;;2.13;;
4676;SDS011;2352;48.180;11.478;2023-02-01T17:02:40;4.20;;;3.80;;
4676;SDS011;2352;48.180;11.478;2023-02-01T17:05:43;4.40;;;3.07;;
4676;SDS011;2352;48.180;11.478;2023-02-01T17:08:49;4.60;;;3.23;;
4676;SDS011;2352;48.180;11.478;2023-02-01T17:11:55;3.30;;;2.20;;
4676;SDS011;2352;48.180;11.478;2023-02-01T17:14:58;5.13;;;2.77;;
4676;SDS011;2352;48.180;11.478;2023-02-01T17:18:01;3.97;;;2.60;;
4676;SDS011;2352;48.180;11.478;2023-02-01T17:21:05;7.50;;;2.70;;
4676;SDS011;2352;48.180;11.478;2023-02-01T17:24:09;5.63;;;2.07;;
4676;SDS011;2352;48.180;11.478;2023-02-01T17:27:15;7.00;;;3.07;;
4676;SDS011;2352;48.180;11.478;2023-02-01T17:30:19;3.17;;;2.83;;
4676;SDS011;2352;48.180;11.478;2023-02-01T17:33:23;4.10;;;3.10;;
4676;SDS011;2352;48.180;11.478;2023-02-01T17:36:27;3.00;;;2.70;;
4676;SDS011;2352;48.180;11.478;2023-02-01T17:39:30;4.70;;;2.80;;
4676;SDS011;2352;48.180;11.478;2023-02-01T17:42:52;2.17;;;1.67;;
4676;SDS011;2352;48.180;11.478;2023-02-01T17:45:58;4.00;;;2.87;;
4676;SDS011;2352;48.180;11.478;2023-02-01T17:49:04;7.67;;;3.57;;
4676;SDS011;2352;48.180;11.478;2023-02-01T17:52:08;6.47;;;3.50;;
4676;SDS011;2352;48.180;11.478;2023-02-01T17:55:17;7.03;;;3.23;;
4676;SDS011;2352;48.180;11.478;2023-02-01T17:58:26;4.20;;;2.10;;
4676;SDS011;2352;48.180;11.478;2023-02-01T18:01:30;3.73;;;2.70;;
4676;SDS011;2352;48.180;11.478;2023-02-01T18:04:33;5.00;;;2.70;;
4676;SDS011;2352;48.180;11.478;2023-02-01T18:07:37;4.60;;;3.10;;
4676;SDS011;2352;48.180;11.478;2023-02-01T18:10:40;8.53;;;4.83;;
4676;SDS011;2352;48.180;11.478;2023-02-01T18:13:45;4.90;;;2.87;;
4676;SDS011;2352;48.180;11.478;2023-02-01T18:16:49;5.37;;;2.10;;
4676;SDS011;2352;48.180;11.478;2023-02-01T18:19:52;5.07;;;2.60;;
4676;SDS011;2352;48.180;11.478;2023-02-01T18:22:55;7.70;;;2.57;;
4676;SDS011;2352;48.180;11.478;2023-02-01T18:25:58;6.13;;;3.27;;
4676;SDS011;2352;48.180;11.478;2023-02-01T18:29:02;7.63;;;2.60;;
4676;SDS011;2352;48.180;11.478;2023-02-01T18:32:07;4.60;;;2.30;;
4676;SDS011;2352;48.180;11.478;2023-02-01T18:35:14;4.50;;;2.60;;
4676;SDS011;2352;48.180;11.478;2023-02-01T18:38:20;8.13;;;2.83;;
4676;SDS011;2352;48.180;11.478;2023-02-01T18:41:23;3.00;;;2.33;;
4676;SDS011;2352;48.180;11.478;2023-02-01T18:44:28;2.90;;;2.03;;
4676;SDS011;2352;48.180;11.478;2023-02-01T18:47:31;3.73;;;2.13;;
4676;SDS011;2352;48.180;11.478;2023-02-01T18:50:36;6.40;;;2.43;;
4676;SDS011;2352;48.180;11.478;2023-02-01T18:53:40;3.43;;;2.43;;
4676;SDS011;2352;48.180;11.478;2023-02-01T18:56:43;3.83;;;2.17;;
4676;SDS011;2352;48.180;11.478;2023-02-01T18:59:48;6.57;;;1.80;;
4676;SDS011;2352;48.180;11.478;2023-02-01T19:02:51;2.97;;;1.87;;
4676;SDS011;2352;48.180;11.478;2023-02-01T19:05:54;5.47;;;2.33;;
4676;SDS011;2352;48.180;11.478;2023-02-01T19:08:57;3.90;;;1.93;;
4676;SDS011;2352;48.180;11.478;2023-02-01T19:12:00;6.53;;;2.73;;
4676;SDS011;2352;48.180;11.478;2023-02-01T19:15:07;4.10;;;1.97;;
4676;SDS011;2352;48.180;11.478;2023-02-01T19:18:15;5.57;;;2.57;;
4676;SDS011;2352;48.180;11.478;2023-02-01T19:21:20;6.30;;;2.30;;
4676;SDS011;2352;48.180;11.478;2023-02-01T19:24:23;7.23;;;2.97;;